Zapata, TX

05:29 PM CDT am 28. Juli 2014 (GMT -0500)
Hogg County (KHBV) Höhe 663 ft | 27.35 °N, 98.74 °W | Change Station

Current weather conditions updated 14 minutes ago

Scattered Clouds
Teils Wolkig
101 °F
gefühlte 101 °F
N
9
Wind Wechselnd Wind aus Ost-Südost
Gusts 17 mph

Morgen wird es voraussichtlich wärmer als heute.

Heute
Max. -- | schwach -- °F
--% Regenrisiko
Gestern
Max. -- | schwach -- °F
Precip. -- inch
6:59 AM 8:27 PM
Erstes Viertel, 4% visible
Druck 30.00 inch
Sichtweite 10.0 Meilen
Wolken Teils Wolkig 8000 ft
Hitzeindex 101 °F
Taupunkt 59 °F
Feuchtigkeit 25%
Regen 0.00 inch
Schneehöhe Nicht verfügbar..
UV 4 von 12
Pollen 7.50 von 12
Luftqualität Nicht verfügbar..
Flu Activity Nicht verfügbar..
METAR KHBV 282215Z AUTO 12008G15KT 10SM SCT080 38/15 A3000 RMK AO2 T03820151

More Conditions Fewer Conditions

Druck 30.00 inch
Sichtweite 10.0 Meilen
Wolken Teils Wolkig 8000 ft
Hitzeindex 101 °F
Taupunkt 59 °F
Feuchtigkeit 25%
Regen 0.00 inch
Schneehöhe Nicht verfügbar..
UV 4 von 12
Pollen 7.50 von 12
Luftqualität Nicht verfügbar..
Flu Activity Nicht verfügbar..
METAR KHBV 282215Z AUTO 12008G15KT 10SM SCT080 38/15 A3000 RMK AO2 T03820151

More Conditions Fewer Conditions

10-Day Weather Forecast

Almanac

Astronomie

Jul. 28, 2014 Aufgang Untergang
Genaue Zeit 06:59 CDT 20:27 CDT
Bürgerliche Dämmerung 06:34 CDT 20:52 CDT
Nautische Dämmerung 06:03 CDT 21:22 CDT
Astronomische Dämmerung 05:32 CDT 21:54 CDT
Mond 08:28 CDT 21:26 CDT
Länge des sichtbaren Lichts 14h 18m
Tageslänge
13h 28m
Tomorrow will be 1m 6s shorter.
Erstes Viertel, 4% of the Moon is Illuminated
Heute
Erstes Viertel
Aug 3
Erstes Viertel
Aug 10
Vollmond
Aug 17
Letztes Viertel
Aug 25
Neu

Heutige Rekorde

State Highs State Lows

Community

WunderPhotos

Upload Photos

1,738,513 Fotos hochgeladen!

Nearby

Schneehöhe

Station Depth Höhe
Kein Neuschnee gemeldet.

Erdbebenaktivität

Stadt Distance Mag. Time & Date
No recent earthquake activity has been reported nearby.
Minimum magnitude displayed is 2.5.

küstennahe Wassertemperaturen

Ort Temperatur
Kein Stationsbericht

Wetterstationen in der Umgebung

Es gibt keine Persönlichen Wetterstationen in dieser Region.